KFPY/FPY METAR and TAF weather

Enter ICAO airport designator
Station Type Date Time Source
KFPY METAR 2022/01/25 05:35 UTC NOAA

KFPY 250535Z AUTO 00000KT 10SM BKN120 07/05 A3002 RMK AO2 T00710046


Station Type Date Time Source
KFPY Decoded METAR 2022/01/25 05:35 UTC NOAA

Station name not available
Jan 25, 2022 - 12:35 AM EST / 2022.01.25 0535 UTC
Wind: Calm:0
Visibility: 10 mile(s):0
Sky conditions: mostly cloudy
Temperature: 44.8 F (7.1 C)
Dew Point: 40.3 F (4.6 C)
Relative Humidity: 84%
Pressure (altimeter): 30.02 in. Hg (1016 hPa)
ob: KFPY 250535Z AUTO 00000KT 10SM BKN120 07/05 A3002 RMK AO2 T00710046
cycle: 5

Station Type Date Time Source
KFPY TAF UTC NOAA

Error!

Example: see airport list